createdAt,value
2019-03-16T00:00:39.347Z,4.20
2019-03-16T00:01:39.375Z,4.12
2019-03-16T00:02:39.400Z,4.14
2019-03-16T00:03:39.429Z,4.18
2019-03-16T00:04:39.453Z,4.22
2019-03-16T00:05:39.482Z,4.14
2019-03-16T00:06:39.508Z,4.13
2019-03-16T00:07:39.539Z,4.14
2019-03-16T00:08:39.565Z,4.22
2019-03-16T00:09:39.588Z,4.20
2019-03-16T00:10:39.618Z,4.22
2019-03-16T00:11:39.674Z,4.16
2019-03-16T00:12:39.674Z,4.25
2019-03-16T00:13:39.693Z,4.18
2019-03-16T00:14:39.723Z,4.22
2019-03-16T00:15:39.753Z,4.22
2019-03-16T00:16:39.775Z,4.16
2019-03-16T00:17:39.802Z,4.18
2019-03-16T00:18:39.830Z,4.20
2019-03-16T00:19:39.858Z,4.21
2019-03-16T00:20:39.884Z,4.22
2019-03-16T00:21:39.911Z,4.21
2019-03-16T00:22:39.938Z,4.20
2019-03-16T00:23:39.967Z,4.20
2019-03-16T00:24:39.989Z,4.25
2019-03-16T00:25:40.016Z,4.25
2019-03-16T00:26:40.045Z,4.24
2019-03-16T00:27:40.073Z,4.14
2019-03-16T00:28:40.099Z,4.21
2019-03-16T00:29:40.127Z,4.22
2019-03-16T00:30:40.153Z,4.20
2019-03-16T00:31:40.181Z,4.30
2019-03-16T00:32:40.210Z,4.22
2019-03-16T00:33:40.233Z,4.18
2019-03-16T00:34:40.262Z,4.22
2019-03-16T00:35:40.288Z,4.20
2019-03-16T00:36:40.311Z,4.25
2019-03-16T00:37:40.339Z,4.30
2019-03-16T00:38:40.374Z,4.24
2019-03-16T00:39:40.396Z,4.24
2019-03-16T00:40:40.420Z,4.24
2019-03-16T00:41:40.449Z,4.22
2019-03-16T00:42:40.473Z,4.30
2019-03-16T00:43:40.507Z,4.27
2019-03-16T00:44:40.526Z,4.34
2019-03-16T00:45:40.556Z,4.27
2019-03-16T00:46:40.582Z,4.30
2019-03-16T00:47:40.615Z,4.31
2019-03-16T00:48:40.636Z,4.32
2019-03-16T00:49:40.664Z,4.36
2019-03-16T00:50:40.689Z,4.32
2019-03-16T00:51:40.718Z,4.32
2019-03-16T00:52:40.742Z,4.25
2019-03-16T00:53:40.770Z,4.30
2019-03-16T00:54:40.796Z,4.34
2019-03-16T00:55:40.823Z,4.32
2019-03-16T00:56:40.850Z,4.25
2019-03-16T00:57:40.879Z,4.24
2019-03-16T00:58:40.905Z,4.20
2019-03-16T00:59:40.931Z,4.24
2019-03-16T01:00:40.956Z,4.34
2019-03-16T01:01:40.987Z,4.38
2019-03-16T01:02:41.011Z,4.34
2019-03-16T01:03:41.041Z,4.32
2019-03-16T01:04:41.065Z,4.30
2019-03-16T01:05:41.093Z,4.25
2019-03-16T01:06:41.119Z,4.31
2019-03-16T01:07:41.146Z,4.25
2019-03-16T01:08:41.171Z,4.30
2019-03-16T01:09:43.594Z,4.30
2019-03-16T01:10:41.228Z,4.31
2019-03-16T01:11:41.253Z,4.32
2019-03-16T01:12:41.280Z,4.30
2019-03-16T01:13:41.309Z,4.22
2019-03-16T01:14:41.331Z,4.25
2019-03-16T01:15:41.364Z,4.31
2019-03-16T01:16:41.386Z,4.31
2019-03-16T01:17:41.414Z,4.34
2019-03-16T01:18:41.443Z,4.22
2019-03-16T01:19:41.468Z,4.31
2019-03-16T01:20:41.494Z,4.25
2019-03-16T01:21:41.521Z,4.28
2019-03-16T01:22:41.561Z,4.32
2019-03-16T01:23:41.579Z,4.24
2019-03-16T01:24:41.605Z,4.32
2019-03-16T01:25:41.627Z,4.25
2019-03-16T01:26:41.657Z,4.28
2019-03-16T01:27:41.683Z,4.10
2019-03-16T01:28:41.710Z,4.30
2019-03-16T01:29:41.736Z,4.22
2019-03-16T01:30:41.764Z,4.25
2019-03-16T01:31:41.792Z,4.18
2019-03-16T01:32:41.818Z,4.18
2019-03-16T01:33:41.853Z,4.16
2019-03-16T01:34:44.235Z,4.21
2019-03-16T01:35:41.901Z,4.20
2019-03-16T01:36:41.926Z,4.13
2019-03-16T01:37:41.953Z,4.14
2019-03-16T01:38:41.978Z,4.10
2019-03-16T01:39:42.006Z,4.09
2019-03-16T01:40:42.031Z,4.10
2019-03-16T01:41:42.060Z,4.09
2019-03-16T01:42:42.086Z,4.10
2019-03-16T01:43:42.113Z,4.10
2019-03-16T01:44:42.140Z,4.10
2019-03-16T01:45:42.171Z,4.12
2019-03-16T01:46:42.194Z,4.10
2019-03-16T01:47:42.221Z,4.13
2019-03-16T01:48:42.254Z,4.07
2019-03-16T01:49:42.275Z,4.03
2019-03-16T01:50:42.304Z,4.09
2019-03-16T01:51:42.330Z,4.09
2019-03-16T01:52:42.358Z,4.18
2019-03-16T01:53:42.383Z,4.14
2019-03-16T01:54:42.409Z,4.13
2019-03-16T01:55:42.442Z,4.18
2019-03-16T01:56:42.460Z,4.10
2019-03-16T01:57:42.490Z,4.14
2019-03-16T01:58:42.518Z,4.16
2019-03-16T01:59:42.543Z,4.12
2019-03-16T02:00:42.573Z,4.12
2019-03-16T02:01:42.599Z,4.16
2019-03-16T02:02:54.196Z,4.14
2019-03-16T02:03:42.657Z,4.13
2019-03-16T02:04:42.678Z,4.13
2019-03-16T02:05:42.704Z,4.07
2019-03-16T02:06:42.732Z,4.20
2019-03-16T02:07:42.761Z,4.09
2019-03-16T02:08:42.790Z,4.12
2019-03-16T02:09:42.816Z,4.18
2019-03-16T02:10:42.840Z,4.13
2019-03-16T02:11:42.866Z,3.99
2019-03-16T02:12:42.894Z,3.94
2019-03-16T02:13:42.922Z,3.91
2019-03-16T02:14:42.946Z,3.95
2019-03-16T02:15:42.978Z,3.85
2019-03-16T02:16:43.002Z,3.85
2019-03-16T02:17:43.027Z,3.77
2019-03-16T02:18:43.055Z,3.81
2019-03-16T02:19:43.083Z,3.74
2019-03-16T02:20:43.108Z,3.84
2019-03-16T02:21:43.282Z,3.78
2019-03-16T02:22:43.163Z,3.84
2019-03-16T02:23:43.194Z,3.78
2019-03-16T02:24:43.217Z,3.85
2019-03-16T02:25:43.244Z,3.85
2019-03-16T02:26:43.273Z,3.78
2019-03-16T02:27:43.300Z,3.78
2019-03-16T02:28:43.323Z,3.78
2019-03-16T02:29:43.352Z,3.84
2019-03-16T02:30:43.379Z,3.81
2019-03-16T02:31:43.407Z,3.78
2019-03-16T02:32:43.435Z,3.73
2019-03-16T02:33:43.469Z,3.78
2019-03-16T02:34:43.486Z,3.71
2019-03-16T02:35:43.526Z,3.67
2019-03-16T02:36:43.542Z,3.70
2019-03-16T02:37:43.573Z,3.61
2019-03-16T02:38:43.593Z,3.64
2019-03-16T02:39:43.620Z,3.71
2019-03-16T02:40:43.653Z,3.59
2019-03-16T02:41:43.676Z,3.73
2019-03-16T02:42:43.703Z,3.61
2019-03-16T02:43:43.734Z,3.61
2019-03-16T02:44:43.755Z,3.61
2019-03-16T02:45:43.783Z,3.63
2019-03-16T02:46:43.815Z,3.77
2019-03-16T02:47:43.836Z,3.61
2019-03-16T02:48:43.865Z,3.64
2019-03-16T02:49:43.891Z,3.71
2019-03-16T02:50:43.915Z,3.77
2019-03-16T02:51:43.947Z,3.67
2019-03-16T02:52:43.979Z,3.64
2019-03-16T02:53:43.996Z,3.66
2019-03-16T02:54:44.024Z,3.55
2019-03-16T02:55:44.050Z,3.56
2019-03-16T02:56:44.085Z,3.52
2019-03-16T02:57:44.105Z,3.53
2019-03-16T02:58:44.150Z,3.55
2019-03-16T02:59:44.160Z,3.52
2019-03-16T03:00:44.183Z,3.50
2019-03-16T03:01:44.212Z,3.49
2019-03-16T03:02:44.243Z,3.50
2019-03-16T03:03:44.267Z,3.52
2019-03-16T03:04:46.172Z,3.53
2019-03-16T03:05:44.320Z,3.55
2019-03-16T03:06:44.360Z,3.52
2019-03-16T03:07:44.371Z,3.40
2019-03-16T03:08:44.398Z,3.46
2019-03-16T03:09:44.427Z,3.37
2019-03-16T03:10:44.456Z,3.43
2019-03-16T03:11:44.479Z,3.43
2019-03-16T03:12:44.509Z,3.41
2019-03-16T03:13:44.552Z,3.34
2019-03-16T03:14:44.560Z,3.48
2019-03-16T03:15:44.586Z,3.41
2019-03-16T03:16:44.612Z,3.41
2019-03-16T03:17:44.651Z,3.34
2019-03-16T03:18:49.155Z,3.34
2019-03-16T03:19:44.695Z,3.36
2019-03-16T03:20:44.719Z,3.40
2019-03-16T03:21:44.749Z,3.43
2019-03-16T03:22:44.773Z,3.36
2019-03-16T03:23:44.801Z,3.43
2019-03-16T03:24:44.934Z,3.43
2019-03-16T03:25:44.854Z,3.36
2019-03-16T03:26:44.881Z,3.37
2019-03-16T03:27:44.914Z,3.40
2019-03-16T03:28:44.932Z,3.40
2019-03-16T03:29:44.962Z,3.43
2019-03-16T03:30:44.993Z,3.37
2019-03-16T03:31:45.017Z,3.37
2019-03-16T03:32:45.050Z,3.37
2019-03-16T03:34:00.356Z,3.34
2019-03-16T03:34:45.094Z,3.37
2019-03-16T03:35:45.120Z,3.40
2019-03-16T03:36:45.150Z,3.37
2019-03-16T03:37:45.175Z,3.40
2019-03-16T03:38:45.199Z,3.34
2019-03-16T03:39:45.227Z,3.33
2019-03-16T03:40:45.260Z,3.41
2019-03-16T03:41:45.288Z,3.40
2019-03-16T03:42:45.305Z,3.36
2019-03-16T03:43:45.333Z,3.36
2019-03-16T03:44:45.361Z,3.41
2019-03-16T03:45:45.389Z,3.33
2019-03-16T03:46:45.417Z,3.34
2019-03-16T03:47:45.444Z,3.43
2019-03-16T03:48:45.467Z,3.40
2019-03-16T03:49:45.494Z,3.49
2019-03-16T03:50:45.521Z,3.58
2019-03-16T03:51:45.548Z,3.61
2019-03-16T03:52:45.574Z,3.49
2019-03-16T03:53:45.605Z,3.52
2019-03-16T03:54:45.626Z,3.55
2019-03-16T03:55:45.655Z,3.56
2019-03-16T03:56:45.682Z,3.53
2019-03-16T03:57:45.709Z,3.43
2019-03-16T03:58:45.737Z,3.49
2019-03-16T03:59:45.765Z,3.55
2019-03-16T04:00:45.786Z,3.55
2019-03-16T04:01:45.813Z,3.52
2019-03-16T04:02:45.842Z,3.50
2019-03-16T04:03:45.867Z,3.58
2019-03-16T04:04:45.895Z,3.53
2019-03-16T04:05:45.919Z,3.55
2019-03-16T04:06:45.946Z,3.52
2019-03-16T04:07:45.981Z,3.52
2019-03-16T04:08:46.012Z,3.56
2019-03-16T04:09:46.026Z,3.52
2019-03-16T04:10:46.052Z,3.50
2019-03-16T04:11:46.080Z,3.52
2019-03-16T04:12:46.105Z,3.50
2019-03-16T04:13:46.133Z,3.52
2019-03-16T04:14:46.163Z,3.53
2019-03-16T04:15:46.187Z,3.53
2019-03-16T04:16:46.212Z,3.50
2019-03-16T04:17:46.241Z,3.53
2019-03-16T04:18:46.269Z,3.48
2019-03-16T04:19:46.294Z,3.43
2019-03-16T04:20:46.322Z,3.53
2019-03-16T04:21:46.392Z,3.43
2019-03-16T04:22:46.374Z,3.36
2019-03-16T04:23:46.401Z,3.41
2019-03-16T04:24:46.430Z,3.53
2019-03-16T04:25:46.455Z,3.41
2019-03-16T04:26:46.497Z,3.36
2019-03-16T04:27:46.510Z,3.37
2019-03-16T04:28:46.535Z,3.43
2019-03-16T04:29:46.565Z,3.43
2019-03-16T04:30:46.591Z,3.40
2019-03-16T04:31:46.617Z,3.41
2019-03-16T04:32:46.645Z,3.37
2019-03-16T04:33:46.672Z,3.41
2019-03-16T04:34:46.699Z,3.36
2019-03-16T04:35:46.729Z,3.33
2019-03-16T04:36:46.750Z,3.31
2019-03-16T04:37:46.778Z,3.29
2019-03-16T04:38:46.805Z,3.27
2019-03-16T04:39:46.834Z,3.26
2019-03-16T04:40:46.859Z,3.30
2019-03-16T04:41:46.891Z,3.33
2019-03-16T04:42:46.911Z,3.24
2019-03-16T04:43:46.940Z,3.26
2019-03-16T04:44:46.968Z,3.24
2019-03-16T04:45:46.993Z,3.31
2019-03-16T04:46:47.021Z,3.33
2019-03-16T04:47:47.049Z,3.29
2019-03-16T04:48:47.075Z,3.19
2019-03-16T04:49:47.104Z,3.21
2019-03-16T04:50:47.131Z,3.18
2019-03-16T04:51:47.155Z,3.36
2019-03-16T04:52:47.185Z,3.21
2019-03-16T04:53:47.213Z,3.33
2019-03-16T04:54:47.237Z,3.33
2019-03-16T04:55:47.282Z,3.15
2019-03-16T04:56:47.290Z,3.16
2019-03-16T04:57:47.320Z,3.29
2019-03-16T04:58:47.345Z,3.26
2019-03-16T04:59:47.371Z,3.19
2019-03-16T05:00:47.401Z,3.29
2019-03-16T05:01:47.425Z,3.34
2019-03-16T05:02:47.454Z,3.27
2019-03-16T05:03:47.479Z,3.24
2019-03-16T05:04:47.509Z,3.36
2019-03-16T05:05:47.533Z,3.37
2019-03-16T05:06:47.563Z,3.31
2019-03-16T05:07:47.588Z,3.27
2019-03-16T05:08:47.614Z,3.31
2019-03-16T05:09:47.648Z,3.31
2019-03-16T05:10:47.674Z,3.29
2019-03-16T05:11:47.709Z,3.29
2019-03-16T05:12:47.723Z,3.30
2019-03-16T05:13:47.752Z,3.34
2019-03-16T05:14:47.782Z,3.31
2019-03-16T05:15:50.719Z,3.24
2019-03-16T05:16:47.831Z,3.29
2019-03-16T05:17:47.860Z,3.24
2019-03-16T05:18:47.889Z,3.18
2019-03-16T05:19:47.915Z,3.30
2019-03-16T05:20:47.941Z,3.24
2019-03-16T05:21:47.968Z,3.31
2019-03-16T05:22:47.996Z,3.33
2019-03-16T05:23:48.024Z,3.37
2019-03-16T05:24:48.050Z,3.37
2019-03-16T05:25:48.076Z,3.24
2019-03-16T05:26:48.103Z,3.33
2019-03-16T05:27:48.131Z,3.34
2019-03-16T05:28:48.157Z,3.30
2019-03-16T05:29:48.197Z,3.34
2019-03-16T05:30:48.214Z,3.46
2019-03-16T05:31:50.658Z,3.36
2019-03-16T05:32:48.269Z,3.41
2019-03-16T05:33:48.295Z,3.33
2019-03-16T05:34:56.534Z,3.34
2019-03-16T05:35:48.352Z,3.37
2019-03-16T05:36:48.375Z,3.37
2019-03-16T05:37:48.406Z,3.40
2019-03-16T05:38:48.434Z,3.41
2019-03-16T05:39:48.460Z,3.36
2019-03-16T05:40:48.485Z,3.40
2019-03-16T05:41:48.519Z,3.40
2019-03-16T05:42:48.541Z,3.40
2019-03-16T05:43:48.568Z,3.45
2019-03-16T05:44:48.595Z,3.50
2019-03-16T05:45:48.623Z,3.61
2019-03-16T05:46:48.650Z,3.58
2019-03-16T05:47:48.677Z,3.61
2019-03-16T05:48:48.704Z,3.63
2019-03-16T05:49:48.731Z,3.56
2019-03-16T05:50:48.759Z,3.63
2019-03-16T05:51:48.789Z,3.64
2019-03-16T05:52:48.812Z,3.59
2019-03-16T05:53:48.842Z,3.74
2019-03-16T05:54:48.872Z,3.73
2019-03-16T05:55:48.897Z,3.70
2019-03-16T05:56:48.924Z,3.78
2019-03-16T05:57:48.953Z,3.68
2019-03-16T05:58:48.979Z,3.76
2019-03-16T05:59:49.009Z,3.82
2019-03-16T06:00:49.036Z,3.81
2019-03-16T06:01:49.064Z,3.92
2019-03-16T06:02:49.091Z,3.91
2019-03-16T06:03:49.118Z,4.03
2019-03-16T06:04:49.146Z,3.95
2019-03-16T06:05:49.174Z,3.95
2019-03-16T06:06:49.204Z,4.03
2019-03-16T06:07:49.252Z,4.04
2019-03-16T06:08:49.256Z,4.00
2019-03-16T06:09:49.291Z,4.13
2019-03-16T06:10:49.312Z,4.14
2019-03-16T06:11:49.342Z,4.18
2019-03-16T06:12:49.369Z,4.25
2019-03-16T06:13:49.396Z,4.25
2019-03-16T06:14:49.425Z,4.21
2019-03-16T06:15:49.455Z,4.32
2019-03-16T06:16:49.481Z,4.30
2019-03-16T06:17:49.513Z,4.28
2019-03-16T06:18:49.539Z,4.24
2019-03-16T06:19:49.565Z,4.36
2019-03-16T06:20:49.594Z,4.32
2019-03-16T06:21:49.624Z,4.39
2019-03-16T06:22:49.654Z,4.46
2019-03-16T06:23:49.679Z,4.48
2019-03-16T06:24:49.707Z,4.46
2019-03-16T06:25:49.738Z,4.42
2019-03-16T06:26:49.764Z,4.45
2019-03-16T06:27:49.796Z,4.50
2019-03-16T06:28:49.823Z,4.57
2019-03-16T06:29:49.849Z,4.56
2019-03-16T06:30:49.878Z,4.60
2019-03-16T06:31:49.907Z,4.61
2019-03-16T06:32:49.933Z,4.67
2019-03-16T06:33:49.960Z,4.63
2019-03-16T06:34:49.992Z,4.60
2019-03-16T06:35:50.021Z,4.68
2019-03-16T06:36:50.049Z,4.64
2019-03-16T06:37:50.082Z,4.61
2019-03-16T06:38:50.105Z,4.71
2019-03-16T06:39:50.136Z,4.75
2019-03-16T06:40:50.164Z,4.74
2019-03-16T06:41:50.193Z,4.76
2019-03-16T06:42:50.219Z,4.75
2019-03-16T06:43:50.252Z,4.68
2019-03-16T06:44:50.277Z,4.71
2019-03-16T06:45:50.307Z,4.74
2019-03-16T06:46:50.335Z,4.75
2019-03-16T06:47:50.364Z,4.79
2019-03-16T06:48:50.390Z,4.71
2019-03-16T06:49:50.418Z,4.78
2019-03-16T06:50:50.449Z,4.79
2019-03-16T06:51:50.476Z,4.83
2019-03-16T06:52:50.507Z,4.83
2019-03-16T06:53:50.536Z,4.87
2019-03-16T06:54:50.562Z,4.87
2019-03-16T06:55:50.590Z,4.84
2019-03-16T06:56:50.621Z,4.83
2019-03-16T06:57:50.653Z,4.86
2019-03-16T06:58:50.678Z,4.86
2019-03-16T06:59:50.707Z,4.86
2019-03-16T07:00:50.736Z,4.89
2019-03-16T07:01:50.768Z,4.89
2019-03-16T07:02:50.794Z,4.86
2019-03-16T07:03:50.909Z,4.87
2019-03-16T07:04:50.847Z,4.82
2019-03-16T07:05:50.877Z,4.87
2019-03-16T07:06:50.907Z,4.82
2019-03-16T07:07:50.938Z,4.74
2019-03-16T07:08:50.966Z,4.84
2019-03-16T07:09:50.992Z,4.83
2019-03-16T07:10:51.027Z,4.97
2019-03-16T07:11:51.048Z,4.90
2019-03-16T07:12:51.084Z,4.87
2019-03-16T07:13:51.105Z,4.97
2019-03-16T07:14:51.135Z,4.89
2019-03-16T07:15:51.169Z,4.95
2019-03-16T07:17:01.301Z,4.89
2019-03-16T07:17:51.226Z,4.89
2019-03-16T07:18:58.662Z,4.97
2019-03-16T07:19:51.280Z,4.95
2019-03-16T07:20:51.309Z,4.94
2019-03-16T07:21:51.335Z,4.95
2019-03-16T07:22:51.369Z,4.98
2019-03-16T07:23:51.398Z,5.00
2019-03-16T07:24:51.771Z,5.15
2019-03-16T07:25:51.449Z,5.13
2019-03-16T07:26:51.570Z,5.15
2019-03-16T07:27:51.507Z,5.12
2019-03-16T07:28:51.537Z,5.22
2019-03-16T07:29:51.566Z,5.23
2019-03-16T07:30:51.598Z,5.31
2019-03-16T07:31:51.621Z,5.31
2019-03-16T07:32:51.649Z,5.25
2019-03-16T07:33:51.679Z,5.28
2019-03-16T07:34:51.708Z,5.34
2019-03-16T07:35:51.737Z,5.31
2019-03-16T07:36:51.764Z,5.33
2019-03-16T07:37:51.792Z,5.36
2019-03-16T07:38:51.822Z,5.36
2019-03-16T07:39:51.853Z,5.40
2019-03-16T07:40:51.878Z,5.46
2019-03-16T07:41:51.911Z,5.49
2019-03-16T07:42:51.943Z,5.52
2019-03-16T07:43:51.966Z,5.56
2019-03-16T07:44:52.002Z,5.55
2019-03-16T07:45:52.024Z,5.56
2019-03-16T07:46:52.053Z,5.54
2019-03-16T07:47:52.081Z,5.74
2019-03-16T07:48:52.110Z,5.65
2019-03-16T07:49:52.140Z,5.70
2019-03-16T07:50:52.173Z,5.84
2019-03-16T07:51:52.198Z,5.99
2019-03-16T07:52:52.225Z,6.16
2019-03-16T07:53:52.256Z,6.13
2019-03-16T07:54:52.284Z,6.31
2019-03-16T07:55:52.315Z,6.25
2019-03-16T07:56:52.347Z,6.20
2019-03-16T07:57:52.374Z,6.38
2019-03-16T07:58:52.403Z,6.26
2019-03-16T07:59:52.433Z,6.15
2019-03-16T08:00:52.460Z,6.25
2019-03-16T08:01:52.494Z,6.25
2019-03-16T08:02:52.522Z,6.25
2019-03-16T08:03:52.550Z,5.99
2019-03-16T08:04:52.601Z,5.98
2019-03-16T08:05:52.617Z,5.79
2019-03-16T08:06:52.641Z,5.67
2019-03-16T08:07:52.671Z,5.51
2019-03-16T08:08:52.703Z,5.46
2019-03-16T08:09:52.729Z,5.55
2019-03-16T08:10:52.761Z,5.55
2019-03-16T08:11:52.788Z,5.51
2019-03-16T08:12:52.817Z,5.34
2019-03-16T08:13:52.846Z,5.36
2019-03-16T08:14:52.877Z,5.25
2019-03-16T08:15:52.913Z,5.37
2019-03-16T08:16:52.941Z,5.44
2019-03-16T08:17:52.965Z,5.54
2019-03-16T08:18:52.998Z,5.64
2019-03-16T08:19:53.021Z,5.54
2019-03-16T08:20:53.051Z,5.62
2019-03-16T08:21:53.085Z,5.55
2019-03-16T08:22:53.117Z,5.59
2019-03-16T08:23:53.894Z,5.56
2019-03-16T08:24:53.170Z,5.61
2019-03-16T08:25:53.201Z,5.58
2019-03-16T08:26:53.228Z,5.70
2019-03-16T08:27:54.715Z,5.70
2019-03-16T08:28:53.287Z,5.81
2019-03-16T08:29:53.318Z,5.65
2019-03-16T08:30:56.607Z,5.62
2019-03-16T08:31:53.379Z,5.56
2019-03-16T08:32:53.406Z,5.61
2019-03-16T08:33:53.435Z,5.72
2019-03-16T08:34:53.465Z,5.65
2019-03-16T08:35:53.497Z,5.69
2019-03-16T08:36:53.523Z,5.52
2019-03-16T08:37:53.553Z,5.64
2019-03-16T08:38:53.582Z,5.51
2019-03-16T08:39:53.613Z,5.81
2019-03-16T08:40:53.642Z,5.72
2019-03-16T08:41:53.673Z,5.74
2019-03-16T08:42:53.702Z,5.74
2019-03-16T08:43:53.732Z,5.74
2019-03-16T08:44:53.763Z,5.81
2019-03-16T08:45:53.793Z,5.74
2019-03-16T08:46:53.819Z,5.83
2019-03-16T08:47:53.851Z,5.79
2019-03-16T08:48:53.879Z,5.70
2019-03-16T08:49:53.909Z,5.44
2019-03-16T08:50:53.937Z,5.37
2019-03-16T08:51:53.969Z,5.29
2019-03-16T08:52:54.075Z,5.23
2019-03-16T08:53:54.030Z,5.29
2019-03-16T08:54:54.059Z,5.33
2019-03-16T08:55:54.087Z,5.28
2019-03-16T08:56:54.116Z,5.29
2019-03-16T08:58:05.393Z,5.16
2019-03-16T08:58:54.175Z,5.26
2019-03-16T08:59:54.204Z,5.31
2019-03-16T09:00:54.233Z,5.38
2019-03-16T09:01:54.260Z,5.20
2019-03-16T09:02:54.297Z,5.28
2019-03-16T09:03:54.320Z,5.31
2019-03-16T09:04:54.353Z,5.33
2019-03-16T09:05:54.393Z,5.40
2019-03-16T09:06:54.408Z,5.46
2019-03-16T09:07:54.439Z,5.38
2019-03-16T09:08:54.466Z,5.41
2019-03-16T09:09:54.495Z,5.41
2019-03-16T09:10:54.529Z,5.41
2019-03-16T09:11:54.556Z,5.62
2019-03-16T09:12:55.453Z,5.58
2019-03-16T09:13:54.618Z,5.76
2019-03-16T09:14:54.644Z,5.81
2019-03-16T09:15:54.677Z,5.91
2019-03-16T09:16:54.705Z,6.01
2019-03-16T09:17:54.736Z,6.05
2019-03-16T09:18:54.761Z,6.09
2019-03-16T09:19:54.795Z,5.92
2019-03-16T09:20:54.827Z,5.91
2019-03-16T09:21:54.861Z,5.91
2019-03-16T09:22:54.886Z,5.90
2019-03-16T09:23:54.912Z,5.87
2019-03-16T09:24:54.944Z,5.84
2019-03-16T09:25:54.980Z,5.81
2019-03-16T09:26:55.005Z,5.99
2019-03-16T09:27:55.032Z,5.92
2019-03-16T09:29:00.047Z,5.94
2019-03-16T09:29:55.093Z,6.12
2019-03-16T09:30:56.519Z,5.98
2019-03-16T09:31:55.158Z,6.26
2019-03-16T09:32:55.185Z,6.20
2019-03-16T09:33:55.214Z,6.13
2019-03-16T09:34:55.247Z,6.16
2019-03-16T09:35:55.283Z,5.98
2019-03-16T09:36:55.306Z,6.06
2019-03-16T09:37:55.337Z,6.29
2019-03-16T09:38:55.369Z,6.50
2019-03-16T09:39:55.399Z,6.62
2019-03-16T09:40:55.432Z,6.80
2019-03-16T09:41:55.466Z,7.14
2019-03-16T09:42:55.490Z,6.97
2019-03-16T09:43:55.574Z,6.95
2019-03-16T09:44:55.555Z,6.90
2019-03-16T09:45:55.584Z,6.89
2019-03-16T09:46:55.626Z,7.03
2019-03-16T09:47:55.683Z,7.03
2019-03-16T09:48:55.678Z,6.75
2019-03-16T09:49:55.711Z,6.62
2019-03-16T09:50:55.747Z,6.64
2019-03-16T09:51:55.775Z,6.65
2019-03-16T09:52:55.835Z,6.89
2019-03-16T09:53:55.835Z,6.86
2019-03-16T09:54:55.871Z,6.89
2019-03-16T09:55:55.903Z,6.96
2019-03-16T09:57:01.027Z,6.83
2019-03-16T09:57:55.962Z,6.75
2019-03-16T09:58:55.996Z,6.85
2019-03-16T09:59:56.039Z,6.85
2019-03-16T10:00:56.062Z,6.62
2019-03-16T10:01:56.090Z,6.56
2019-03-16T10:02:56.124Z,6.64
2019-03-16T10:03:56.161Z,6.82
2019-03-16T10:04:56.190Z,6.75
2019-03-16T10:05:56.218Z,6.53
2019-03-16T10:06:56.253Z,6.77
2019-03-16T10:07:56.282Z,6.83
2019-03-16T10:08:56.313Z,6.87
2019-03-16T10:09:56.345Z,6.70
2019-03-16T10:10:56.382Z,6.74
2019-03-16T10:11:56.428Z,6.60
2019-03-16T10:12:56.438Z,6.59
2019-03-16T10:13:56.476Z,6.52
2019-03-16T10:14:56.509Z,6.38
2019-03-16T10:15:56.537Z,6.65
2019-03-16T10:16:56.567Z,6.72
2019-03-16T10:17:56.598Z,7.15
2019-03-16T10:18:56.631Z,7.26
2019-03-16T10:19:56.661Z,7.53
2019-03-16T10:20:56.693Z,7.40
2019-03-16T10:21:56.725Z,7.32
2019-03-16T10:22:56.761Z,7.18
2019-03-16T10:23:56.794Z,7.05
2019-03-16T10:24:56.820Z,6.68
2019-03-16T10:25:56.855Z,6.53
2019-03-16T10:26:56.885Z,6.43
2019-03-16T10:27:56.943Z,6.31
2019-03-16T10:28:56.952Z,6.16
2019-03-16T10:29:56.987Z,6.28
2019-03-16T10:30:57.014Z,6.36
2019-03-16T10:31:57.045Z,6.38
2019-03-16T10:32:57.073Z,6.41
2019-03-16T10:33:57.107Z,6.52
2019-03-16T10:34:57.137Z,6.80
2019-03-16T10:35:57.169Z,7.14
2019-03-16T10:36:57.204Z,7.40
2019-03-16T10:37:57.232Z,7.55
2019-03-16T10:38:57.271Z,7.84
2019-03-16T10:39:57.301Z,7.85
2019-03-16T10:40:57.328Z,8.03
2019-03-16T10:41:57.361Z,8.18
2019-03-16T10:42:57.389Z,7.50
2019-03-16T10:43:57.423Z,7.23
2019-03-16T10:44:57.454Z,7.32
2019-03-16T10:45:57.487Z,7.04
2019-03-16T10:46:57.527Z,7.23
2019-03-16T10:47:57.559Z,7.18
2019-03-16T10:48:57.589Z,7.40
2019-03-16T10:49:57.616Z,7.31
2019-03-16T10:50:57.648Z,7.48
2019-03-16T10:51:57.684Z,7.19
2019-03-16T10:52:57.723Z,7.23
2019-03-16T10:53:57.747Z,7.14
2019-03-16T10:54:57.777Z,6.85
2019-03-16T10:55:57.809Z,6.72
2019-03-16T10:56:57.847Z,6.71
2019-03-16T10:57:57.876Z,6.77
2019-03-16T10:58:57.913Z,6.86
2019-03-16T10:59:57.940Z,6.59
2019-03-16T11:00:57.972Z,6.67
2019-03-16T11:01:58.007Z,6.77
2019-03-16T11:02:58.033Z,7.31
2019-03-16T11:03:58.065Z,8.02
2019-03-16T11:04:58.096Z,8.06
2019-03-16T11:05:58.129Z,8.27
2019-03-16T11:06:58.165Z,8.49
2019-03-16T11:07:58.197Z,8.66
2019-03-16T11:08:58.227Z,8.44
2019-03-16T11:09:58.259Z,8.32
2019-03-16T11:10:58.294Z,7.91
2019-03-16T11:11:58.328Z,7.85
2019-03-16T11:12:58.356Z,7.74
2019-03-16T11:13:58.406Z,7.80
2019-03-16T11:14:58.424Z,8.08
2019-03-16T11:15:58.456Z,8.66
2019-03-16T11:16:58.499Z,8.89
2019-03-16T11:17:58.523Z,9.52
2019-03-16T11:18:58.555Z,10.42
2019-03-16T11:19:58.587Z,10.41
2019-03-16T11:20:58.627Z,9.37
2019-03-16T11:21:58.658Z,8.79
2019-03-16T11:22:58.689Z,7.96
2019-03-16T11:23:58.725Z,7.69
2019-03-16T11:24:58.757Z,7.67
2019-03-16T11:25:58.791Z,7.90
2019-03-16T11:26:58.823Z,7.85
2019-03-16T11:27:58.858Z,7.55
2019-03-16T11:29:08.535Z,7.14
2019-03-16T11:29:58.923Z,6.62
2019-03-16T11:30:58.963Z,6.60
2019-03-16T11:31:58.994Z,6.80
2019-03-16T11:32:59.028Z,6.89
2019-03-16T11:33:59.057Z,6.96
2019-03-16T11:34:59.093Z,7.18
2019-03-16T11:35:59.122Z,8.08
2019-03-16T11:36:59.156Z,9.27
2019-03-16T11:37:59.187Z,10.23
2019-03-16T11:38:59.221Z,10.97
2019-03-16T11:39:59.258Z,11.33
2019-03-16T11:40:59.291Z,11.07
2019-03-16T11:41:59.325Z,10.82
2019-03-16T11:42:59.360Z,10.27
2019-03-16T11:43:59.397Z,9.97
2019-03-16T11:44:59.428Z,9.81
2019-03-16T11:45:59.459Z,9.54
2019-03-16T11:46:59.495Z,8.82
2019-03-16T11:47:59.534Z,8.49
2019-03-16T11:48:59.564Z,7.99
2019-03-16T11:49:59.601Z,7.67
2019-03-16T11:50:59.633Z,7.15
2019-03-16T11:51:59.668Z,6.90
2019-03-16T11:52:59.705Z,6.62
2019-03-16T11:53:59.739Z,6.64
2019-03-16T11:54:59.780Z,6.54
2019-03-16T11:55:59.805Z,6.60
2019-03-16T11:56:59.839Z,6.57
2019-03-16T11:57:59.877Z,6.57
2019-03-16T11:58:59.906Z,6.53
2019-03-16T11:59:59.940Z,6.70
2019-03-16T12:00:59.973Z,6.70
2019-03-16T12:02:05.286Z,6.72
2019-03-16T12:03:00.049Z,6.83
2019-03-16T12:04:00.067Z,6.85
2019-03-16T12:05:00.196Z,7.08
2019-03-16T12:06:00.130Z,7.19
2019-03-16T12:07:00.164Z,7.18
2019-03-16T12:08:00.197Z,7.23
2019-03-16T12:09:00.226Z,7.37
2019-03-16T12:10:00.260Z,7.74
2019-03-16T12:11:00.292Z,8.38
2019-03-16T12:12:00.325Z,8.56
2019-03-16T12:13:00.358Z,8.71
2019-03-16T12:14:00.389Z,8.95
2019-03-16T12:15:00.507Z,8.52
2019-03-16T12:16:00.454Z,8.35
2019-03-16T12:17:00.486Z,8.09
2019-03-16T12:18:00.517Z,8.01
2019-03-16T12:19:00.550Z,7.88
2019-03-16T12:20:00.584Z,7.72
2019-03-16T12:21:00.614Z,7.26
2019-03-16T12:22:00.647Z,6.92
2019-03-16T12:23:00.685Z,6.75
2019-03-16T12:24:00.715Z,6.56
2019-03-16T12:25:00.750Z,6.38
2019-03-16T12:26:00.778Z,6.22
2019-03-16T12:27:00.811Z,6.35
2019-03-16T12:28:00.842Z,6.43
2019-03-16T12:29:00.883Z,6.20
2019-03-16T12:30:00.910Z,6.16
2019-03-16T12:31:00.940Z,6.13
2019-03-16T12:32:00.968Z,6.12
2019-03-16T12:33:01.000Z,5.92
2019-03-16T12:34:01.034Z,5.88
2019-03-16T12:35:01.066Z,5.92
2019-03-16T12:36:01.098Z,5.84
2019-03-16T12:37:01.125Z,5.62
2019-03-16T12:38:01.156Z,5.55
2019-03-16T12:39:01.188Z,5.37
2019-03-16T12:40:01.224Z,5.36
2019-03-16T12:41:01.248Z,5.36
2019-03-16T12:42:01.282Z,5.37
2019-03-16T12:43:01.313Z,5.33
2019-03-16T12:44:01.359Z,5.37
2019-03-16T12:45:01.374Z,5.44
2019-03-16T12:46:01.401Z,5.46
2019-03-16T12:47:01.432Z,5.49
2019-03-16T12:48:01.461Z,5.61
2019-03-16T12:49:01.492Z,5.51
2019-03-16T12:50:01.520Z,5.59
2019-03-16T12:51:01.552Z,5.58
2019-03-16T12:52:01.585Z,5.55
2019-03-16T12:53:01.610Z,5.55
2019-03-16T12:54:01.640Z,5.67
2019-03-16T12:55:01.671Z,5.70
2019-03-16T12:56:01.702Z,5.79
2019-03-16T12:57:01.731Z,5.88
2019-03-16T12:58:01.759Z,5.83
2019-03-16T12:59:10.389Z,5.69
2019-03-16T13:00:01.821Z,5.81
2019-03-16T13:01:01.853Z,5.79
2019-03-16T13:02:01.881Z,5.56
2019-03-16T13:03:01.910Z,5.62
2019-03-16T13:04:01.943Z,5.58
2019-03-16T13:05:02.001Z,5.62
2019-03-16T13:06:01.996Z,5.49
2019-03-16T13:07:02.028Z,5.51
2019-03-16T13:08:02.058Z,5.59
2019-03-16T13:09:02.088Z,5.58
2019-03-16T13:10:02.119Z,5.54
2019-03-16T13:11:02.146Z,5.61
2019-03-16T13:12:02.177Z,5.62
2019-03-16T13:13:02.214Z,5.69
2019-03-16T13:14:02.237Z,5.76
2019-03-16T13:15:02.264Z,5.74
2019-03-16T13:16:02.295Z,5.52
2019-03-16T13:17:02.325Z,5.56
2019-03-16T13:18:02.353Z,5.56
2019-03-16T13:19:02.399Z,5.54